Time;durP1;ratioP1;P1;durP2;ratioP2;P2;SDS_P1;SDS_P2;PMS_P1;PMS_P2;Temp;Humidity;BMP_temperature;BMP_pressure;BME280_temperature;BME280_humidity;BME280_pressure;Samples;Min_cycle;Max_cycle;Signal;HPM_P1;HPM_P2
2022/05/07 00:02:18;;;;;;;7.50;6.10;;;;;;;9.41;100.00;96979.09;5055286;28;20436;-78
2022/05/07 00:04:45;;;;;;;6.03;5.53;;;;;;;9.48;100.00;96989.22;5038121;28;20519;-81
2022/05/07 00:07:12;;;;;;;7.10;5.90;;;;;;;9.61;100.00;97027.94;5043324;28;20437;-79
2022/05/07 00:09:39;;;;;;;6.40;5.90;;;;;;;9.76;100.00;97032.88;5042653;28;20471;-77
2022/05/07 00:12:06;;;;;;;8.03;6.00;;;;;;;9.70;100.00;97014.81;5057684;28;20440;-79
2022/05/07 00:14:34;;;;;;;9.70;5.87;;;;;;;9.56;100.00;97025.44;5062428;28;20427;-78
2022/05/07 00:19:47;;;;;;;6.97;6.37;;;;;;;9.47;100.00;97016.69;5036949;28;20937;-75
2022/05/07 00:22:15;;;;;;;6.93;6.23;;;;;;;9.18;100.00;96970.41;5055170;28;20464;-75
2022/05/07 00:24:42;;;;;;;8.20;6.60;;;;;;;9.34;100.00;97012.25;5041592;28;20438;-75
2022/05/07 00:27:09;;;;;;;8.77;6.00;;;;;;;9.13;100.00;96994.28;5037240;28;20432;-75
2022/05/07 00:29:36;;;;;;;7.17;6.47;;;;;;;8.95;100.00;96975.97;5036805;28;20955;-75
2022/05/07 00:32:04;;;;;;;7.37;6.67;;;;;;;8.91;100.00;96988.22;5043070;28;20527;-75
2022/05/07 00:34:31;;;;;;;6.67;6.07;;;;;;;8.78;100.00;96956.31;5037191;28;20466;-75
2022/05/07 00:36:57;;;;;;;6.10;5.50;;;;;;;9.01;100.00;96972.94;5037115;28;20801;-76
2022/05/07 00:39:25;;;;;;;7.90;7.07;;;;;;;8.86;100.00;96955.63;5036594;28;20517;-76
2022/05/07 00:41:52;;;;;;;6.17;5.67;;;;;;;8.94;100.00;96955.97;5052994;28;20464;-76
2022/05/07 00:44:21;;;;;;;6.13;5.53;;;;;;;9.17;100.00;96997.09;5036723;28;20820;-76
2022/05/07 00:46:49;;;;;;;6.63;5.97;;;;;;;9.22;100.00;97012.03;5036580;28;20489;-75
2022/05/07 00:49:17;;;;;;;7.70;6.07;;;;;;;8.85;100.00;96971.75;5036518;28;20436;-75
2022/05/07 00:51:45;;;;;;;7.00;5.50;;;;;;;8.71;100.00;96942.78;5035972;28;20517;-75
2022/05/07 00:54:12;;;;;;;12.80;6.20;;;;;;;8.91;100.00;96981.06;5036472;28;20545;-75
2022/05/07 00:56:39;;;;;;;6.60;5.83;;;;;;;8.73;100.00;96961.72;5036603;28;20473;-75
2022/05/07 00:59:07;;;;;;;7.23;5.93;;;;;;;8.72;100.00;97001.56;5036311;28;20456;-76
2022/05/07 01:01:35;;;;;;;6.27;5.77;;;;;;;8.83;100.00;96997.63;5034664;28;20460;-75
2022/05/07 01:04:02;;;;;;;9.13;5.80;;;;;;;8.68;100.00;96979.47;5052669;28;20475;-76
2022/05/07 01:06:31;;;;;;;6.13;5.63;;;;;;;8.36;100.00;96943.56;5052917;28;20441;-75
2022/05/07 01:08:58;;;;;;;10.20;5.50;;;;;;;8.57;100.00;96961.28;5053426;28;20436;-75
2022/05/07 01:11:27;;;;;;;6.33;5.30;;;;;;;8.78;100.00;96979.25;5036721;28;20930;-75
2022/05/07 01:13:57;;;;;;;6.80;5.10;;;;;;;8.82;100.00;96986.31;5053635;28;20461;-76
2022/05/07 01:16:27;;;;;;;5.53;5.03;;;;;;;8.37;100.00;96959.06;5053312;28;20554;-75
2022/05/07 01:18:53;;;;;;;6.17;5.67;;;;;;;8.35;100.00;96944.63;5052894;28;20444;-75
2022/05/07 01:21:20;;;;;;;9.37;6.67;;;;;;;8.51;100.00;96965.09;5052787;28;20467;-75
2022/05/07 01:23:49;;;;;;;6.87;6.27;;;;;;;8.53;100.00;96989.28;5052981;28;20840;-75
2022/05/07 01:26:20;;;;;;;7.77;6.30;;;;;;;8.30;100.00;96948.91;5037085;28;20483;-75
2022/05/07 01:28:47;;;;;;;11.90;5.80;;;;;;;8.63;100.00;96985.66;5036400;28;20449;-75
2022/05/07 01:31:15;;;;;;;5.67;5.27;;;;;;;8.27;100.00;96946.84;5036359;28;20558;-75
2022/05/07 01:33:43;;;;;;;9.30;6.30;;;;;;;8.30;100.00;96962.09;5035964;28;20435;-75
2022/05/07 01:36:18;;;;;;;5.50;5.00;;;;;;;8.48;100.00;96959.63;5036291;28;20773;-76
2022/05/07 01:38:51;;;;;;;6.83;5.37;;;;;;;8.49;100.00;96969.09;5035723;28;20439;-76
2022/05/07 01:41:18;;;;;;;6.57;6.07;;;;;;;8.47;100.00;96976.53;5036281;28;20521;-75
2022/05/07 01:43:47;;;;;;;11.53;8.50;;;;;;;8.20;100.00;96949.13;5052219;28;21059;-75
2022/05/07 01:49:03;;;;;;;8.13;7.20;;;;;;;7.57;100.00;96955.06;5040427;28;20478;-77
2022/05/07 01:51:30;;;;;;;7.43;6.73;;;;;;;7.41;100.00;96922.22;5036093;28;20460;-76
2022/05/07 01:53:58;;;;;;;9.10;8.30;;;;;;;7.71;100.00;96947.19;5036115;28;20433;-76
2022/05/07 01:56:25;;;;;;;9.07;7.20;;;;;;;7.66;100.00;96902.53;5035477;28;20825;-76
2022/05/07 01:58:52;;;;;;;5.90;5.40;;;;;;;7.79;100.00;96906.25;5035424;28;20448;-76
2022/05/07 02:01:20;;;;;;;8.97;6.13;;;;;;;8.21;100.00;96978.88;5035507;28;20513;-75
2022/05/07 02:03:47;;;;;;;6.70;6.10;;;;;;;8.17;100.00;96965.50;5035211;28;20459;-76
2022/05/07 02:06:19;;;;;;;8.80;5.77;;;;;;;8.09;100.00;96971.47;5035151;28;20525;-76
2022/05/07 02:08:47;;;;;;;5.10;4.60;;;;;;;7.70;100.00;96921.94;5019027;28;20454;-76
2022/05/07 02:11:19;;;;;;;6.57;5.97;;;;;;;7.33;100.00;96920.22;5019844;28;20451;-77
2022/05/07 02:13:46;;;;;;;6.90;5.90;;;;;;;7.25;100.00;96939.34;5053403;28;20522;-76
2022/05/07 02:16:14;;;;;;;6.00;4.80;;;;;;;7.24;100.00;96943.81;5034952;28;20444;-76
2022/05/07 02:18:42;;;;;;;5.80;5.03;;;;;;;7.38;100.00;96954.38;5035215;28;20500;-76
2022/05/07 02:21:09;;;;;;;6.47;5.73;;;;;;;7.22;100.00;96917.03;5035178;28;20554;-76
2022/05/07 02:23:36;;;;;;;6.10;5.50;;;;;;;7.16;100.00;96898.97;5035004;28;20507;-75
2022/05/07 02:26:02;;;;;;;9.33;5.97;;;;;;;7.36;100.00;96912.56;5034724;28;20440;-75
2022/05/07 02:28:29;;;;;;;6.33;5.73;;;;;;;7.56;100.00;96940.34;5035164;28;20944;-75
2022/05/07 02:30:57;;;;;;;5.30;4.90;;;;;;;7.24;100.00;96890.44;5053184;28;20835;-76
2022/05/07 02:33:25;;;;;;;7.60;5.70;;;;;;;7.77;100.00;96967.09;5036553;28;20534;-77
2022/05/07 02:35:52;;;;;;;6.17;5.67;;;;;;;7.67;100.00;96948.84;5036035;28;20874;-75
2022/05/07 02:38:18;;;;;;;9.60;5.80;;;;;;;7.28;100.00;96941.38;5053480;28;20428;-77
2022/05/07 02:43:37;;;;;;;6.00;5.50;;;;;;;7.27;100.00;96924.03;5035122;28;20475;-77
2022/05/07 02:46:10;;;;;;;5.60;5.10;;;;;;;6.85;100.00;96922.38;5035068;28;20962;-76
2022/05/07 02:48:39;;;;;;;5.80;4.60;;;;;;;6.76;100.00;96906.47;5035023;28;20471;-76
2022/05/07 02:51:08;;;;;;;6.37;5.83;;;;;;;6.71;100.00;96922.31;5035238;28;20465;-76
2022/05/07 02:53:36;;;;;;;7.27;6.67;;;;;;;6.90;100.00;96928.31;5034998;28;20498;-76
2022/05/07 02:56:03;;;;;;;7.43;6.73;;;;;;;6.97;100.00;96943.72;5034908;28;20451;-76
2022/05/07 02:58:31;;;;;;;7.30;6.07;;;;;;;7.16;100.00;96943.69;5034567;28;20479;-76
2022/05/07 03:00:58;;;;;;;5.93;5.40;;;;;;;7.16;100.00;96947.09;5035157;28;20540;-76
2022/05/07 03:03:25;;;;;;;6.53;5.93;;;;;;;7.31;100.00;96967.88;5018302;28;20514;-76
2022/05/07 03:05:59;;;;;;;8.87;6.60;;;;;;;7.29;100.00;96963.97;5034713;28;20463;-76
2022/05/07 03:08:26;;;;;;;7.07;6.40;;;;;;;7.28;100.00;96957.16;5034523;28;20477;-76
2022/05/07 03:10:53;;;;;;;6.90;6.30;;;;;;;7.25;100.00;96966.41;5034788;28;20467;-76
2022/05/07 03:13:20;;;;;;;8.47;6.00;;;;;;;7.09;100.00;96933.56;5034704;28;20785;-77
2022/05/07 03:15:48;;;;;;;6.60;5.97;;;;;;;7.12;100.00;96964.53;5034637;28;20440;-76
2022/05/07 03:18:15;;;;;;;6.67;6.07;;;;;;;6.75;100.00;96939.84;5052635;28;20452;-76
2022/05/07 03:20:42;;;;;;;5.90;5.40;;;;;;;6.49;100.00;96925.53;5034336;28;20878;-76
2022/05/07 03:23:15;;;;;;;7.23;6.57;;;;;;;6.61;100.00;96923.25;5034124;28;20817;-76
2022/05/07 03:25:45;;;;;;;6.57;6.03;;;;;;;6.69;100.00;96959.41;5033279;28;20451;-77
2022/05/07 03:28:12;;;;;;;19.73;6.77;;;;;;;6.88;100.00;96971.72;5034125;28;20447;-76
2022/05/07 03:30:39;;;;;;;8.07;7.37;;;;;;;6.43;100.00;96913.53;5034061;28;20467;-76
2022/05/07 03:33:07;;;;;;;6.77;6.13;;;;;;;6.57;100.00;96921.47;5050688;28;20447;-76
2022/05/07 03:35:37;;;;;;;7.37;6.47;;;;;;;6.58;100.00;96939.59;5034735;28;20467;-77
2022/05/07 03:38:04;;;;;;;7.63;5.63;;;;;;;6.64;100.00;96935.03;5034100;28;20433;-76
2022/05/07 03:40:39;;;;;;;7.47;6.77;;;;;;;6.39;100.00;96878.38;5034477;28;20467;-76
2022/05/07 03:43:06;;;;;;;8.03;6.23;;;;;;;6.76;100.00;96936.16;5034576;28;20460;-77
2022/05/07 03:45:33;;;;;;;6.73;6.13;;;;;;;6.60;100.00;96918.28;5034442;28;20451;-76
2022/05/07 03:48:00;;;;;;;6.90;6.30;;;;;;;6.79;100.00;96934.78;5034922;28;20467;-76
2022/05/07 03:50:27;;;;;;;7.27;6.47;;;;;;;6.72;100.00;96922.03;5050870;28;20470;-76
2022/05/07 03:55:44;;;;;;;6.63;5.97;;;;;;;6.82;100.00;96956.03;5040352;28;20438;-77
2022/05/07 03:58:20;;;;;;;6.10;5.60;;;;;;;6.64;100.00;96948.94;5034487;28;20454;-76
2022/05/07 04:00:47;;;;;;;7.53;6.83;;;;;;;6.44;100.00;96941.38;5034506;28;20825;-76
2022/05/07 04:03:14;;;;;;;6.37;5.77;;;;;;;6.61;100.00;96967.91;5034680;28;20473;-76
2022/05/07 04:05:50;;;;;;;7.80;6.30;;;;;;;6.51;100.00;96976.69;5034438;28;20522;-76
2022/05/07 04:08:19;;;;;;;7.20;6.50;;;;;;;6.55;100.00;96978.78;5034308;28;20443;-76
2022/05/07 04:10:47;;;;;;;6.03;5.50;;;;;;;6.66;100.00;96982.81;5034493;28;20820;-76
2022/05/07 04:13:18;;;;;;;6.80;6.20;;;;;;;6.39;100.00;96920.41;5034123;28;20473;-76
2022/05/07 04:15:50;;;;;;;6.70;6.07;;;;;;;6.57;100.00;96945.13;5034339;28;20455;-76
2022/05/07 04:18:18;;;;;;;7.00;6.30;;;;;;;6.68;100.00;96985.97;5018474;28;20448;-75
2022/05/07 04:20:49;;;;;;;6.43;5.23;;;;;;;6.50;100.00;96941.00;5034733;28;20521;-76
2022/05/07 04:23:16;;;;;;;6.60;6.00;;;;;;;6.67;100.00;96937.06;5034332;28;20447;-76
2022/05/07 04:25:46;;;;;;;9.47;6.07;;;;;;;6.81;100.00;96972.88;5034190;28;20491;-76
2022/05/07 04:28:16;;;;;;;6.13;5.57;;;;;;;6.73;100.00;96951.72;5034382;28;20550;-75
2022/05/07 04:30:45;;;;;;;6.77;6.07;;;;;;;6.66;100.00;96957.31;5034335;28;20493;-76
2022/05/07 04:33:16;;;;;;;10.83;6.00;;;;;;;6.85;100.00;96982.81;5008378;28;20478;-76
2022/05/07 04:35:43;;;;;;;7.63;6.77;;;;;;;6.20;100.00;96923.81;5032069;28;20833;-77
2022/05/07 04:38:10;;;;;;;6.43;5.93;;;;;;;6.54;100.00;96949.09;5037844;28;20431;-76
2022/05/07 04:40:38;;;;;;;6.93;6.27;;;;;;;6.68;100.00;96985.97;5037857;28;20877;-76
2022/05/07 04:43:06;;;;;;;6.63;5.93;;;;;;;6.57;100.00;96939.88;5037756;28;20558;-76
2022/05/07 04:45:34;;;;;;;6.87;6.13;;;;;;;6.86;100.00;96969.38;5038096;28;20468;-76
2022/05/07 04:48:08;;;;;;;7.37;6.63;;;;;;;6.92;100.00;96952.47;5033296;28;20443;-76
2022/05/07 04:50:36;;;;;;;7.33;6.63;;;;;;;7.02;100.00;96972.56;5037357;28;20516;-76
2022/05/07 04:53:13;;;;;;;8.43;7.80;;;;;;;7.09;100.00;97005.31;5037510;28;20879;-76
2022/05/07 04:55:41;;;;;;;7.00;6.17;;;;;;;7.09;100.00;96988.75;5037007;28;20435;-76
2022/05/07 04:58:08;;;;;;;7.33;6.37;;;;;;;6.92;100.00;96943.81;5037273;28;20438;-76
2022/05/07 05:00:38;;;;;;;7.73;6.50;;;;;;;7.41;100.00;97012.44;5037669;28;20467;-76
2022/05/07 05:03:15;;;;;;;6.47;5.87;;;;;;;7.27;100.00;96977.41;5055256;28;20457;-76
2022/05/07 05:05:53;;;;;;;7.00;6.40;;;;;;;7.33;100.00;96970.22;5036844;28;20436;-76
2022/05/07 05:08:41;;;;;;;7.20;6.50;;;;;;;7.36;100.00;96967.81;5036510;28;20533;-76
2022/05/07 05:11:09;;;;;;;7.10;6.50;;;;;;;7.39;100.00;96967.22;5036188;28;20467;-76
2022/05/07 05:13:35;;;;;;;6.33;5.73;;;;;;;7.74;100.00;97001.88;5036454;28;20444;-76
2022/05/07 05:16:02;;;;;;;6.77;6.07;;;;;;;7.74;100.00;96977.38;5036362;28;20435;-76
2022/05/07 05:18:42;;;;;;;7.53;6.53;;;;;;;8.12;100.00;97015.63;5036598;28;20966;-76
2022/05/07 05:21:11;;;;;;;7.30;6.70;;;;;;;7.72;100.00;96960.03;5036124;28;20888;-76
2022/05/07 05:23:52;;;;;;;7.40;6.07;;;;;;;8.00;100.00;96931.06;5036003;28;20482;-76
2022/05/07 05:26:19;;;;;;;8.03;7.07;;;;;;;8.44;100.00;97017.44;5019857;28;20440;-76
2022/05/07 05:28:51;;;;;;;7.23;6.57;;;;;;;8.45;100.00;96999.75;5026150;28;20452;-76
2022/05/07 05:31:18;;;;;;;7.13;6.43;;;;;;;8.68;100.00;97026.94;5035678;28;20521;-76
2022/05/07 05:33:52;;;;;;;7.43;6.47;;;;;;;8.62;100.00;97026.28;5035172;28;20991;-76
2022/05/07 05:36:30;;;;;;;10.40;6.03;;;;;;;8.45;100.00;96983.94;5035457;28;20792;-76
2022/05/07 05:38:57;;;;;;;6.90;6.30;;;;;;;8.58;100.00;97018.19;5030318;28;20441;-76
2022/05/07 05:41:27;;;;;;;7.43;6.67;;;;;;;8.48;100.00;96992.03;5027844;28;20661;-77
2022/05/07 05:43:54;;;;;;;7.73;6.97;;;;;;;8.50;100.00;96975.91;5034963;28;20517;-76
2022/05/07 05:46:22;;;;;;;7.50;6.80;;;;;;;8.85;100.00;97013.94;5035039;28;20455;-76
2022/05/07 05:48:49;;;;;;;6.27;5.77;;;;;;;9.00;100.00;97041.81;5034022;28;20478;-76
2022/05/07 05:51:16;;;;;;;6.97;6.37;;;;;;;8.50;100.00;96981.97;5034799;28;20874;-76
2022/05/07 05:53:45;;;;;;;7.53;6.70;;;;;;;8.78;100.00;97014.31;5034825;28;20501;-76
2022/05/07 05:56:14;;;;;;;8.10;6.90;;;;;;;8.79;100.00;97028.28;5034913;28;20440;-76
2022/05/07 05:58:45;;;;;;;8.60;7.30;;;;;;;9.01;100.00;97040.72;5034840;28;20914;-76
2022/05/07 06:01:14;;;;;;;8.90;8.10;;;;;;;9.12;100.00;97037.56;5034695;28;20464;-76
2022/05/07 06:03:51;;;;;;;8.57;7.70;;;;;;;9.60;100.00;97060.72;5034862;28;20489;-76
2022/05/07 06:06:19;;;;;;;9.20;7.60;;;;;;;9.70;100.00;97041.22;5034884;28;20444;-76
2022/05/07 06:08:47;;;;;;;8.53;7.70;;;;;;;9.60;100.00;97021.13;5015194;28;20446;-76
2022/05/07 06:11:14;;;;;;;8.23;7.57;;;;;;;9.83;100.00;97050.91;5033610;28;20482;-76
2022/05/07 06:13:43;;;;;;;8.90;7.40;;;;;;;9.98;100.00;97050.53;5018530;28;20437;-75
2022/05/07 06:16:10;;;;;;;8.17;7.40;;;;;;;9.75;100.00;97004.91;5038359;28;20442;-76
2022/05/07 06:18:36;;;;;;;8.23;7.27;;;;;;;9.97;100.00;97024.41;5034654;28;20848;-75
2022/05/07 06:21:07;;;;;;;7.60;7.00;;;;;;;10.10;100.00;97033.31;5034331;28;20502;-76
2022/05/07 06:23:38;;;;;;;9.20;7.57;;;;;;;10.39;100.00;97060.03;5034818;28;20885;-76
2022/05/07 06:28:52;;;;;;;7.93;7.23;;;;;;;10.53;100.00;97047.47;5034387;28;20448;-76
2022/05/07 06:31:19;;;;;;;8.00;7.20;;;;;;;10.62;100.00;97050.16;5034151;28;20547;-76
2022/05/07 06:33:46;;;;;;;8.77;7.93;;;;;;;10.88;100.00;97045.69;5034454;28;20527;-76
2022/05/07 06:36:13;;;;;;;7.33;6.40;;;;;;;10.72;100.00;97007.53;5034085;28;20445;-76
2022/05/07 06:38:41;;;;;;;6.93;6.33;;;;;;;10.99;100.00;97025.00;5017760;28;20436;-76
2022/05/07 06:41:11;;;;;;;7.10;6.40;;;;;;;11.13;100.00;97038.06;5017969;28;20461;-76
2022/05/07 06:43:49;;;;;;;7.93;6.90;;;;;;;11.16;100.00;97032.94;5034013;28;20449;-76
2022/05/07 06:46:27;;;;;;;8.60;7.67;;;;;;;11.32;100.00;97025.28;5030232;28;20457;-76
2022/05/07 06:49:03;;;;;;;7.13;6.50;;;;;;;11.45;100.00;97048.16;5009144;28;20499;-77
2022/05/07 06:51:46;;;;;;;8.43;7.60;;;;;;;11.41;100.00;97027.94;5055046;28;20824;-77
2022/05/07 06:54:12;;;;;;;9.93;7.83;;;;;;;12.00;100.00;97047.44;5037313;28;20421;-77
2022/05/07 06:56:39;;;;;;;8.23;7.53;;;;;;;11.78;100.00;97007.91;5035205;28;20443;-77
2022/05/07 06:59:06;;;;;;;8.73;7.90;;;;;;;12.13;100.00;97032.44;5035446;28;20485;-77
2022/05/07 07:01:33;;;;;;;9.43;8.53;;;;;;;12.42;100.00;97043.06;5053408;28;20967;-77
2022/05/07 07:03:59;;;;;;;7.77;7.07;;;;;;;12.76;100.00;97067.06;5010025;28;20472;-77
2022/05/07 07:06:27;;;;;;;7.00;6.40;;;;;;;12.77;100.00;97034.91;5051723;28;20453;-77
2022/05/07 07:08:54;;;;;;;7.03;6.40;;;;;;;12.83;100.00;97041.59;5036313;28;20953;-77
2022/05/07 07:11:20;;;;;;;6.17;5.73;;;;;;;13.37;100.00;97035.59;5036666;28;20453;-77
2022/05/07 07:13:48;;;;;;;7.73;5.93;;;;;;;13.51;100.00;97034.19;5036654;28;20452;-77
2022/05/07 07:16:15;;;;;;;6.20;5.50;;;;;;;14.03;100.00;97059.47;5037843;28;20958;-77
2022/05/07 07:18:42;;;;;;;7.87;7.27;;;;;;;14.31;100.00;97041.75;5053805;28;20451;-77
2022/05/07 07:21:11;;;;;;;8.33;6.53;;;;;;;14.87;100.00;97062.50;5054352;28;20465;-77
2022/05/07 07:23:38;;;;;;;8.10;7.37;;;;;;;14.68;100.00;97063.06;5054126;28;20453;-77
2022/05/07 07:26:04;;;;;;;7.43;6.73;;;;;;;14.54;100.00;97063.38;5053728;28;20532;-77
2022/05/07 07:28:31;;;;;;;10.50;7.37;;;;;;;14.71;100.00;97067.72;5054699;28;20448;-77
2022/05/07 07:30:58;;;;;;;7.07;6.57;;;;;;;15.17;100.00;97070.97;5053935;28;20460;-77
2022/05/07 07:33:25;;;;;;;7.07;6.47;;;;;;;15.06;100.00;97041.34;5055446;28;20462;-77
2022/05/07 07:35:51;;;;;;;6.70;6.00;;;;;;;15.34;100.00;97041.38;5055220;28;20503;-77
2022/05/07 07:38:25;;;;;;;7.43;6.70;;;;;;;15.07;100.00;97030.34;5055869;28;20436;-77
2022/05/07 07:40:53;;;;;;;11.80;7.10;;;;;;;15.42;100.00;97029.81;5055901;28;20851;-77
2022/05/07 07:43:20;;;;;;;7.60;6.90;;;;;;;15.55;100.00;97033.97;5033467;28;20483;-75
2022/05/07 07:48:32;;;;;;;7.00;6.50;;;;;;;16.03;100.00;97056.19;5047781;28;20524;-75
2022/05/07 07:51:00;;;;;;;7.10;6.43;;;;;;;15.68;100.00;97028.59;5032873;28;20467;-75
2022/05/07 07:53:26;;;;;;;9.20;7.10;;;;;;;16.05;100.00;97053.94;5032964;28;20467;-75
2022/05/07 07:55:53;;;;;;;7.67;6.77;;;;;;;16.07;100.00;97016.25;5050859;28;20424;-75
2022/05/07 07:58:20;;;;;;;7.20;6.40;;;;;;;16.82;93.42;97062.25;5033293;28;20421;-75
2022/05/07 08:00:48;;;;;;;11.57;7.20;;;;;;;16.54;86.35;97058.91;5033091;28;20452;-75
2022/05/07 08:03:17;;;;;;;9.97;6.50;;;;;;;16.74;88.64;97054.44;5032880;28;20449;-75
2022/05/07 08:05:47;;;;;;;7.37;5.80;;;;;;;16.99;84.23;97034.38;5032628;28;21047;-75
2022/05/07 08:13:48;;;;;;;7.87;7.17;;;;;;;16.54;74.20;97000.94;5054652;28;20420;-75
2022/05/07 08:16:17;;;;;;;6.60;6.07;;;;;;;16.75;71.32;97056.75;5054716;28;20421;-75
2022/05/07 08:18:45;;;;;;;7.23;6.13;;;;;;;17.03;70.68;97064.63;5054692;28;20514;-75
2022/05/07 08:21:12;;;;;;;6.07;5.57;;;;;;;16.91;66.03;97054.03;5036174;28;20468;-75
2022/05/07 08:23:40;;;;;;;8.60;6.20;;;;;;;16.72;66.90;97062.03;5036292;28;20505;-75
2022/05/07 08:26:07;;;;;;;6.90;6.20;;;;;;;16.91;66.54;97047.94;5036271;28;20493;-75
2022/05/07 08:28:36;;;;;;;6.43;5.80;;;;;;;17.49;66.85;97072.78;5036563;28;20479;-75
2022/05/07 08:31:03;;;;;;;6.07;5.67;;;;;;;18.09;69.49;97075.84;5036449;28;21354;-75
2022/05/07 08:33:31;;;;;;;6.73;6.00;;;;;;;17.39;67.97;97062.69;5036336;28;20442;-75
2022/05/07 08:35:58;;;;;;;8.07;5.93;;;;;;;17.82;66.99;97042.09;5019881;28;20464;-75
2022/05/07 08:38:25;;;;;;;8.10;5.60;;;;;;;18.09;64.97;97035.69;5036135;28;20437;-75
2022/05/07 08:40:52;;;;;;;5.90;5.30;;;;;;;17.69;62.38;97022.78;5052744;28;20489;-75
2022/05/07 08:43:20;;;;;;;6.17;5.10;;;;;;;18.04;59.80;97062.78;5036238;28;20437;-75
2022/05/07 08:45:46;;;;;;;8.93;4.93;;;;;;;18.16;59.41;97073.31;5019906;28;20464;-75
2022/05/07 08:48:13;;;;;;;6.87;6.00;;;;;;;17.59;59.74;97063.44;5032082;28;20548;-76
2022/05/07 08:50:41;;;;;;;6.97;5.40;;;;;;;17.14;59.52;97072.88;5035999;28;20453;-76
2022/05/07 08:53:09;;;;;;;5.13;4.63;;;;;;;16.79;61.04;97054.16;5035860;28;20828;-76
2022/05/07 08:55:36;;;;;;;7.27;5.20;;;;;;;16.59;61.73;97047.22;5036148;28;20464;-76
2022/05/07 08:58:03;;;;;;;6.17;5.73;;;;;;;16.31;60.64;97055.34;5035897;28;20442;-76
2022/05/07 09:00:30;;;;;;;5.53;5.03;;;;;;;16.61;60.83;97071.66;5053722;28;20518;-76
2022/05/07 09:02:59;;;;;;;4.90;4.50;;;;;;;16.77;60.74;97067.88;5035936;28;21061;-76
2022/05/07 09:05:36;;;;;;;4.90;4.60;;;;;;;17.33;58.35;97070.19;5035923;28;20449;-76
2022/05/07 09:08:06;;;;;;;5.63;5.23;;;;;;;17.81;57.57;97070.75;5053639;28;20432;-76
2022/05/07 09:10:37;;;;;;;5.73;4.40;;;;;;;18.18;58.23;97062.22;5053599;28;20531;-76
2022/05/07 09:13:11;;;;;;;5.40;4.80;;;;;;;17.98;57.70;97074.88;5035592;28;20449;-76
2022/05/07 09:15:52;;;;;;;4.63;4.23;;;;;;;18.05;56.31;97080.38;5035631;28;20858;-76
2022/05/07 09:18:20;;;;;;;10.43;5.70;;;;;;;17.44;56.82;97032.97;5020019;28;20435;-76
2022/05/07 09:21:16;;;;;;;7.90;5.20;;;;;;;17.44;57.35;97075.75;5053047;28;20477;-76
2022/05/07 09:23:48;;;;;;;5.10;4.60;;;;;;;17.18;59.76;97038.97;5034354;28;20807;-76
2022/05/07 09:26:31;;;;;;;4.30;4.00;;;;;;;17.45;58.74;97058.59;5035412;28;20556;-76
2022/05/07 09:29:03;;;;;;;8.63;4.53;;;;;;;18.14;59.61;97078.22;5035414;28;20464;-76
2022/05/07 09:31:32;;;;;;;5.93;5.43;;;;;;;17.98;58.20;97075.66;5053162;28;20536;-76
2022/05/07 09:36:54;;;;;;;4.67;4.27;;;;;;;17.23;56.30;97037.88;5035020;28;21011;-76
2022/05/07 09:39:20;;;;;;;7.50;4.30;;;;;;;16.98;57.22;97027.50;5034950;28;20422;-75
2022/05/07 09:41:54;;;;;;;4.70;4.30;;;;;;;17.25;57.66;97055.16;5051519;28;20505;-75
2022/05/07 09:44:24;;;;;;;4.23;3.83;;;;;;;16.84;57.38;97038.66;5052924;28;20433;-76
2022/05/07 09:46:50;;;;;;;5.37;4.97;;;;;;;17.20;57.14;97051.97;5034787;28;20473;-76
2022/05/07 09:49:19;;;;;;;5.10;4.70;;;;;;;17.17;57.49;97040.09;5034852;28;20495;-76
2022/05/07 09:51:46;;;;;;;5.13;4.63;;;;;;;17.24;58.31;97042.13;5034689;28;20828;-76
2022/05/07 09:59:45;;;;;;;5.63;5.13;;;;;;;18.32;55.92;97027.66;5036474;28;20479;-76
2022/05/07 10:02:19;;;;;;;4.93;4.57;;;;;;;18.95;54.65;97040.44;5034551;28;20457;-76
2022/05/07 10:05:23;;;;;;;4.47;4.17;;;;;;;19.17;53.62;97041.50;5034428;28;20444;-76
2022/05/07 10:08:31;;;;;;;4.97;4.50;;;;;;;18.99;56.84;97027.88;5052472;28;20505;-76
2022/05/07 10:10:58;;;;;;;5.30;4.90;;;;;;;18.86;54.66;97007.78;5052231;28;20507;-76
2022/05/07 10:13:26;;;;;;;5.10;3.57;;;;;;;19.04;52.51;97035.59;5018097;28;20968;-76
2022/05/07 10:16:03;;;;;;;4.60;4.20;;;;;;;18.56;50.44;97015.75;5034452;28;20516;-76
2022/05/07 10:18:41;;;;;;;4.57;4.17;;;;;;;18.54;52.54;97032.19;5052297;28;20425;-76
2022/05/07 10:21:12;;;;;;;4.83;4.37;;;;;;;18.38;54.57;97028.13;5034033;28;20568;-76
2022/05/07 10:23:56;;;;;;;6.90;4.00;;;;;;;18.07;56.83;97029.94;5034076;28;20442;-76
2022/05/07 10:26:40;;;;;;;5.33;4.83;;;;;;;17.69;55.88;97004.81;5034301;28;20552;-76
2022/05/07 10:29:07;;;;;;;5.30;4.80;;;;;;;17.70;57.12;97025.09;5034106;28;20540;-76
2022/05/07 10:31:47;;;;;;;8.97;5.10;;;;;;;17.96;56.99;97021.72;5034173;28;20882;-76
2022/05/07 10:34:34;;;;;;;5.40;4.53;;;;;;;17.72;56.46;97004.09;5052297;28;20426;-77
2022/05/07 10:37:03;;;;;;;7.53;4.50;;;;;;;17.89;57.08;97013.56;5034575;28;20456;-77
2022/05/07 10:39:31;;;;;;;5.73;5.23;;;;;;;18.27;54.96;97015.31;5035099;28;20448;-77
2022/05/07 10:42:01;;;;;;;5.67;4.03;;;;;;;18.83;53.22;97020.00;5034641;28;20454;-77
2022/05/07 10:44:30;;;;;;;6.97;5.30;;;;;;;18.51;53.94;96982.03;5034974;28;20441;-77
2022/05/07 10:47:08;;;;;;;6.93;3.90;;;;;;;18.77;52.32;96981.25;5034695;28;20469;-77
2022/05/07 10:49:47;;;;;;;5.90;5.40;;;;;;;19.16;52.14;97003.19;5051301;28;20417;-77
2022/05/07 10:52:14;;;;;;;9.50;4.80;;;;;;;19.09;53.32;97008.44;5050822;28;20428;-74
2022/05/07 10:54:41;;;;;;;4.60;4.20;;;;;;;18.76;52.58;97019.13;5050313;28;20465;-74
2022/05/07 10:57:07;;;;;;;4.90;4.57;;;;;;;18.12;53.50;96986.78;5033867;28;20499;-74
2022/05/07 10:59:34;;;;;;;5.07;4.67;;;;;;;18.17;55.29;96978.47;5051463;28;20483;-74
2022/05/07 11:02:05;;;;;;;5.00;4.60;;;;;;;17.66;55.08;96964.63;5033458;28;20529;-74
2022/05/07 11:04:41;;;;;;;5.70;4.37;;;;;;;17.89;55.77;96965.41;5033971;28;20435;-74
2022/05/07 11:07:08;;;;;;;4.53;4.00;;;;;;;17.93;56.64;97005.59;5033360;28;20547;-74
2022/05/07 11:09:35;;;;;;;5.30;4.70;;;;;;;17.97;54.51;96996.50;5033255;28;20461;-74
2022/05/07 11:12:02;;;;;;;4.80;4.50;;;;;;;18.07;57.23;96989.78;5033366;28;20536;-74
2022/05/07 11:14:37;;;;;;;4.50;4.10;;;;;;;18.10;55.54;96993.66;5051410;28;20429;-74
2022/05/07 11:17:04;;;;;;;7.23;4.13;;;;;;;18.01;53.93;96957.19;5033287;28;20464;-74
2022/05/07 11:19:35;;;;;;;5.00;4.50;;;;;;;18.55;52.63;96990.09;5033146;28;20445;-74
2022/05/07 11:22:10;;;;;;;5.93;3.97;;;;;;;18.85;52.81;96995.53;5051217;28;20457;-74
2022/05/07 11:24:37;;;;;;;7.47;4.10;;;;;;;19.07;52.00;96985.81;5033480;28;20506;-74
2022/05/07 11:27:06;;;;;;;5.17;4.57;;;;;;;19.04;51.58;96995.38;5032978;28;20547;-75
2022/05/07 11:29:34;;;;;;;6.57;4.97;;;;;;;18.81;54.26;96959.84;5017594;28;20456;-75
2022/05/07 11:32:07;;;;;;;5.93;4.27;;;;;;;18.76;54.06;96989.66;5033101;28;20521;-74
2022/05/07 11:34:38;;;;;;;4.87;4.50;;;;;;;18.52;53.96;96982.78;5033030;28;20922;-74
2022/05/07 11:37:22;;;;;;;7.30;4.53;;;;;;;18.51;54.91;96987.38;5033119;28;20436;-75
2022/05/07 11:39:57;;;;;;;4.83;4.30;;;;;;;18.53;54.86;96984.34;5051019;28;20447;-73
2022/05/07 11:42:29;;;;;;;6.17;4.10;;;;;;;19.28;54.88;96977.28;5033259;28;20463;-72
2022/05/07 11:45:26;;;;;;;6.27;4.80;;;;;;;19.77;53.53;96977.81;5032345;28;20449;-72
2022/05/07 11:48:17;;;;;;;5.10;3.90;;;;;;;19.74;52.55;96983.13;5050859;28;20429;-72
2022/05/07 11:50:56;;;;;;;5.70;4.43;;;;;;;19.01;52.97;96971.22;5021443;28;20464;-73
2022/05/07 11:53:28;;;;;;;6.10;4.20;;;;;;;19.57;52.80;96981.03;5033258;28;20521;-74
2022/05/07 11:56:13;;;;;;;4.97;4.57;;;;;;;18.40;53.23;96938.25;5050736;28;20421;-74
2022/05/07 11:58:46;;;;;;;8.93;4.20;;;;;;;18.35;53.03;96946.59;5032941;28;20929;-74
2022/05/07 12:01:18;;;;;;;7.13;4.20;;;;;;;18.39;53.59;96971.53;5032926;28;20457;-74
2022/05/07 12:03:45;;;;;;;4.83;4.33;;;;;;;18.39;53.96;96962.72;5050628;28;20430;-74
2022/05/07 12:06:25;;;;;;;7.33;4.53;;;;;;;18.25;54.53;96969.41;5032562;28;20457;-74
2022/05/07 12:08:52;;;;;;;7.47;4.50;;;;;;;18.30;54.02;96958.41;5032710;28;20871;-74
2022/05/07 12:11:20;;;;;;;5.50;4.37;;;;;;;19.58;52.64;96939.66;5035745;28;20453;-74
2022/05/07 12:13:47;;;;;;;3.87;3.53;;;;;;;19.46;50.16;96938.75;5032551;28;20953;-74
2022/05/07 12:19:00;;;;;;;4.30;4.00;;;;;;;19.35;53.06;96958.56;5039406;28;20925;-75